createdAt,value
2018-12-16T00:00:40.300Z,100455.55
2018-12-16T00:03:10.548Z,100446.23
2018-12-16T00:05:38.907Z,100449.77
2018-12-16T00:08:07.254Z,100443.00
2018-12-16T00:10:35.604Z,100437.02
2018-12-16T00:13:04.099Z,100425.54
2018-12-16T00:15:32.552Z,100424.22
2018-12-16T00:18:00.996Z,100426.36
2018-12-16T00:20:29.325Z,100421.50
2018-12-16T00:22:57.695Z,100419.36
2018-12-16T00:25:26.047Z,100405.29
2018-12-16T00:27:54.403Z,100401.95
2018-12-16T00:30:22.840Z,100398.89
2018-12-16T00:32:51.208Z,100404.86
2018-12-16T00:35:19.565Z,100398.38
2018-12-16T00:37:47.913Z,100411.34
2018-12-16T00:40:16.378Z,100406.80
2018-12-16T00:42:44.706Z,100410.55
2018-12-16T00:45:13.086Z,100415.21
2018-12-16T00:47:41.490Z,100418.63
2018-12-16T00:50:09.848Z,100409.41
2018-12-16T00:52:38.242Z,100399.20
2018-12-16T00:55:06.701Z,100391.80
2018-12-16T00:57:35.310Z,100392.52
2018-12-16T01:00:05.491Z,100393.73
2018-12-16T01:02:39.708Z,100382.90
2018-12-16T01:05:08.239Z,100376.50
2018-12-16T01:07:36.618Z,100375.80
2018-12-16T01:10:07.889Z,100384.41
2018-12-16T01:12:36.455Z,100384.03
2018-12-16T01:15:05.349Z,100374.28
2018-12-16T01:17:33.824Z,100371.66
2018-12-16T01:20:02.314Z,100378.84
2018-12-16T01:22:30.659Z,100374.58
2018-12-16T01:24:59.146Z,100369.20
2018-12-16T01:27:27.482Z,100368.31
2018-12-16T01:29:55.810Z,100356.66
2018-12-16T01:32:24.147Z,100349.45
2018-12-16T01:34:52.575Z,100345.22
2018-12-16T01:37:20.953Z,100348.75
2018-12-16T01:39:49.331Z,100339.34
2018-12-16T01:42:17.668Z,100336.39
2018-12-16T01:44:46.079Z,100328.30
2018-12-16T01:47:14.455Z,100326.78
2018-12-16T01:49:42.954Z,100314.22
2018-12-16T01:52:11.338Z,100305.20
2018-12-16T01:54:39.715Z,100301.34
2018-12-16T01:57:08.063Z,100296.30
2018-12-16T01:59:36.488Z,100295.27
2018-12-16T02:02:04.831Z,100297.49
2018-12-16T02:04:33.189Z,100301.55
2018-12-16T02:07:01.643Z,100300.75
2018-12-16T02:09:30.531Z,100301.05
2018-12-16T02:11:58.911Z,100297.61
2018-12-16T02:14:27.563Z,100291.64
2018-12-16T02:16:55.909Z,100287.27
2018-12-16T02:19:24.324Z,100290.33
2018-12-16T02:21:53.685Z,100295.37
2018-12-16T02:24:22.106Z,100286.56
2018-12-16T02:26:50.442Z,100288.08
2018-12-16T02:29:18.809Z,100287.69
2018-12-16T02:31:47.351Z,100284.33
2018-12-16T02:34:15.894Z,100282.11
2018-12-16T02:36:44.326Z,100281.20
2018-12-16T02:39:12.674Z,100283.10
2018-12-16T02:41:41.012Z,100279.47
2018-12-16T02:44:09.408Z,100276.74
2018-12-16T02:46:37.725Z,100278.47
2018-12-16T02:49:06.080Z,100276.64
2018-12-16T02:51:34.522Z,100274.02
2018-12-16T02:54:02.899Z,100270.25
2018-12-16T02:56:31.241Z,100271.37
2018-12-16T02:58:59.859Z,100265.70
2018-12-16T03:01:28.273Z,100259.91
2018-12-16T03:03:56.604Z,100265.59
2018-12-16T03:06:24.952Z,100260.04
2018-12-16T03:08:53.312Z,100261.77
2018-12-16T03:11:21.736Z,100265.41
2018-12-16T03:13:50.136Z,100261.55
2018-12-16T03:16:19.011Z,100259.84
2018-12-16T03:18:47.409Z,100256.09
2018-12-16T03:21:15.890Z,100251.53
2018-12-16T03:23:44.377Z,100249.80
2018-12-16T03:26:12.794Z,100249.31
2018-12-16T03:28:41.223Z,100239.39
2018-12-16T03:31:10.261Z,100238.69
2018-12-16T03:33:38.626Z,100236.76
2018-12-16T03:36:06.995Z,100236.44
2018-12-16T03:38:35.353Z,100227.32
2018-12-16T03:41:03.726Z,100223.79
2018-12-16T03:43:32.064Z,100216.09
2018-12-16T03:46:00.421Z,100213.77
2018-12-16T03:48:28.782Z,100211.43
2018-12-16T03:50:57.109Z,100210.81
2018-12-16T03:53:25.471Z,100205.88
2018-12-16T03:55:53.817Z,100203.23
2018-12-16T03:58:22.187Z,100194.41
2018-12-16T04:00:50.615Z,100190.78
2018-12-16T04:03:19.080Z,100181.14
2018-12-16T04:05:47.500Z,100180.34
2018-12-16T04:08:15.920Z,100174.47
2018-12-16T04:10:44.281Z,100175.41
2018-12-16T04:13:12.620Z,100175.60
2018-12-16T04:15:41.245Z,100174.48
2018-12-16T04:18:09.575Z,100168.61
2018-12-16T04:20:37.983Z,100160.10
2018-12-16T04:23:06.389Z,100163.24
2018-12-16T04:25:34.722Z,100155.24
2018-12-16T04:28:03.361Z,100150.88
2018-12-16T04:30:31.957Z,100148.67
2018-12-16T04:33:00.419Z,100157.98
2018-12-16T04:35:28.744Z,100146.93
2018-12-16T04:37:57.185Z,100142.18
2018-12-16T04:40:25.511Z,100139.74
2018-12-16T04:42:53.933Z,100135.19
2018-12-16T04:45:22.289Z,100127.00
2018-12-16T04:47:50.973Z,100123.05
2018-12-16T04:50:19.540Z,100134.29
2018-12-16T04:52:47.967Z,100135.80
2018-12-16T04:55:16.342Z,100125.08
2018-12-16T04:57:44.717Z,100126.11
2018-12-16T05:00:13.092Z,100122.86
2018-12-16T05:02:41.472Z,100123.95
2018-12-16T05:05:09.844Z,100119.52
2018-12-16T05:07:38.234Z,100116.28
2018-12-16T05:10:32.521Z,100112.53
2018-12-16T05:13:00.863Z,100104.34
2018-12-16T05:15:29.282Z,100100.31
2018-12-16T05:17:58.564Z,100098.48
2018-12-16T05:20:26.923Z,100094.81
2018-12-16T05:22:55.275Z,100092.41
2018-12-16T05:25:23.628Z,100091.48
2018-12-16T05:27:52.110Z,100089.46
2018-12-16T05:30:20.472Z,100083.11
2018-12-16T05:32:48.915Z,100092.19
2018-12-16T05:35:17.363Z,100079.87
2018-12-16T05:37:45.787Z,100079.04
2018-12-16T05:40:14.211Z,100072.37
2018-12-16T05:42:42.687Z,100082.50
2018-12-16T05:45:11.067Z,100084.95
2018-12-16T05:47:39.444Z,100079.45
2018-12-16T05:50:08.234Z,100086.03
2018-12-16T05:52:36.612Z,100074.20
2018-12-16T05:55:05.095Z,100085.04
2018-12-16T05:57:33.453Z,100075.52
2018-12-16T06:00:01.849Z,100071.05
2018-12-16T06:02:30.235Z,100073.30
2018-12-16T06:04:58.803Z,100067.71
2018-12-16T06:07:27.283Z,100058.12
2018-12-16T06:09:56.571Z,100055.39
2018-12-16T06:12:25.413Z,100045.06
2018-12-16T06:14:53.867Z,100041.72
2018-12-16T06:17:22.189Z,100042.14
2018-12-16T06:19:50.683Z,100038.20
2018-12-16T06:22:19.122Z,100024.72
2018-12-16T06:24:47.464Z,100028.67
2018-12-16T06:27:15.896Z,100034.03
2018-12-16T06:29:44.681Z,100030.08
2018-12-16T06:32:13.054Z,100038.91
2018-12-16T06:34:41.437Z,100041.73
2018-12-16T06:37:09.818Z,100045.77
2018-12-16T06:39:38.185Z,100049.44
2018-12-16T06:42:06.666Z,100053.19
2018-12-16T06:44:35.059Z,100060.16
2018-12-16T06:47:03.435Z,100043.16
2018-12-16T06:49:31.814Z,100047.61
2018-12-16T06:52:00.147Z,100045.91
2018-12-16T06:54:28.699Z,100042.77
2018-12-16T06:56:57.142Z,100041.14
2018-12-16T06:59:25.507Z,100052.27
2018-12-16T07:01:54.091Z,100045.59
2018-12-16T07:04:22.496Z,100042.88
2018-12-16T07:06:50.879Z,100048.65
2018-12-16T07:09:19.259Z,100053.72
2018-12-16T07:11:47.624Z,100057.86
2018-12-16T07:14:16.293Z,100051.56
2018-12-16T07:16:44.759Z,100056.83
2018-12-16T07:19:13.279Z,100060.68
2018-12-16T07:21:41.682Z,100048.84
2018-12-16T07:24:10.203Z,100051.57
2018-12-16T07:26:38.614Z,100045.41
2018-12-16T07:29:07.006Z,100053.20
2018-12-16T07:31:35.481Z,100046.12
2018-12-16T07:34:04.005Z,100038.74
2018-12-16T07:36:32.450Z,100034.99
2018-12-16T07:39:00.819Z,100036.12
2018-12-16T07:41:29.306Z,100023.58
2018-12-16T07:43:57.708Z,100024.09
2018-12-16T07:46:26.201Z,100025.08
2018-12-16T07:48:54.610Z,100030.95
2018-12-16T07:51:22.994Z,100027.42
2018-12-16T07:53:51.365Z,100017.41
2018-12-16T07:56:19.697Z,100017.09
2018-12-16T07:58:48.092Z,100014.56
2018-12-16T08:01:16.535Z,100011.55
2018-12-16T08:03:44.890Z,100013.74
2018-12-16T08:06:13.290Z,100015.06
2018-12-16T08:08:41.656Z,100023.37
2018-12-16T08:11:10.182Z,100021.64
2018-12-16T08:13:38.528Z,100025.97
2018-12-16T08:16:07.807Z,100019.81
2018-12-16T08:18:42.850Z,100021.27
2018-12-16T08:21:11.300Z,100019.95
2018-12-16T08:23:39.770Z,100013.76
2018-12-16T08:26:08.114Z,100002.02
2018-12-16T08:28:36.557Z,100009.30
2018-12-16T08:31:04.978Z,100002.81
2018-12-16T08:33:33.383Z,100008.17
2018-12-16T08:36:01.748Z,99998.58
2018-12-16T08:38:30.077Z,99995.72
2018-12-16T08:40:58.528Z,100000.41
2018-12-16T08:43:26.920Z,100000.16
2018-12-16T08:45:55.271Z,99999.97
2018-12-16T08:48:23.709Z,100003.91
2018-12-16T08:50:52.055Z,100011.14
2018-12-16T08:53:20.467Z,100003.92
2018-12-16T08:55:48.812Z,100008.39
2018-12-16T08:58:17.351Z,100008.37
2018-12-16T09:00:49.176Z,100015.30
2018-12-16T09:03:17.644Z,100010.88
2018-12-16T09:05:46.003Z,100003.30
2018-12-16T09:08:14.542Z,99992.36
2018-12-16T09:10:42.871Z,99992.45
2018-12-16T09:13:31.445Z,99985.58
2018-12-16T09:16:10.403Z,99979.97
2018-12-16T09:18:38.989Z,99978.41
2018-12-16T09:21:07.313Z,99975.90
2018-12-16T09:23:35.794Z,99971.20
2018-12-16T09:26:04.176Z,99970.98
2018-12-16T09:28:32.536Z,99958.51
2018-12-16T09:31:00.932Z,99959.56
2018-12-16T09:33:29.308Z,99950.01
2018-12-16T09:35:57.687Z,99957.56
2018-12-16T09:38:26.022Z,99962.88
2018-12-16T09:40:54.453Z,99965.00
2018-12-16T09:43:22.771Z,99959.25
2018-12-16T09:45:51.122Z,99955.04
2018-12-16T09:48:19.454Z,99951.12
2018-12-16T09:50:47.903Z,99948.37
2018-12-16T09:53:16.241Z,99945.66
2018-12-16T09:55:44.590Z,99967.58
2018-12-16T09:58:12.945Z,99938.56
2018-12-16T10:00:41.602Z,99952.98
2018-12-16T10:03:09.960Z,99943.97
2018-12-16T10:05:38.392Z,99920.08
2018-12-16T10:08:06.740Z,99926.81
2018-12-16T10:10:35.100Z,99926.89
2018-12-16T10:13:03.905Z,99928.73
2018-12-16T10:15:32.268Z,99935.28
2018-12-16T10:18:00.652Z,99927.83
2018-12-16T10:20:29.055Z,99934.17
2018-12-16T10:22:57.807Z,99911.38
2018-12-16T10:25:26.207Z,99902.16
2018-12-16T10:27:54.636Z,99899.98
2018-12-16T10:30:23.068Z,99901.72
2018-12-16T10:32:51.465Z,99924.05
2018-12-16T10:35:19.802Z,99910.09
2018-12-16T10:37:48.163Z,99904.75
2018-12-16T10:40:16.655Z,99901.25
2018-12-16T10:42:45.011Z,99909.70
2018-12-16T10:45:13.376Z,99902.47
2018-12-16T10:47:41.776Z,99901.72
2018-12-16T10:50:10.219Z,99890.19
2018-12-16T10:52:38.740Z,99880.62
2018-12-16T10:55:07.199Z,99863.98
2018-12-16T10:57:35.530Z,99866.11
2018-12-16T11:00:08.750Z,99867.59
2018-12-16T11:02:37.142Z,99862.78
2018-12-16T11:05:05.695Z,99853.25
2018-12-16T11:07:34.047Z,99848.33
2018-12-16T11:10:02.420Z,99843.39
2018-12-16T11:12:30.953Z,99840.87
2018-12-16T11:14:59.294Z,99858.73
2018-12-16T11:17:27.726Z,99851.61
2018-12-16T11:19:56.101Z,99836.02
2018-12-16T11:22:24.498Z,99832.06
2018-12-16T11:24:52.861Z,99828.22
2018-12-16T11:27:21.202Z,99820.83
2018-12-16T11:29:49.791Z,99814.73
2018-12-16T11:32:18.311Z,99803.92
2018-12-16T11:34:46.653Z,99841.31
2018-12-16T11:37:15.879Z,99798.23
2018-12-16T11:39:44.227Z,99794.46
2018-12-16T11:42:13.603Z,99802.30
2018-12-16T11:44:41.943Z,99794.95
2018-12-16T11:47:10.360Z,99790.52
2018-12-16T11:49:38.691Z,99783.61
2018-12-16T11:52:07.025Z,99794.90
2018-12-16T11:54:35.357Z,99781.97
2018-12-16T11:57:05.139Z,99778.47
2018-12-16T11:59:33.447Z,99783.09
2018-12-16T12:02:01.854Z,99776.38
2018-12-16T12:04:30.299Z,99768.97
2018-12-16T12:06:58.699Z,99779.80
2018-12-16T12:09:27.046Z,99770.67
2018-12-16T12:11:56.429Z,99777.19
2018-12-16T12:14:25.050Z,99775.72
2018-12-16T12:16:53.364Z,99776.75
2018-12-16T12:19:21.720Z,99772.51
2018-12-16T12:21:50.048Z,99780.63
2018-12-16T12:24:18.391Z,99786.67
2018-12-16T12:26:46.726Z,99787.71
2018-12-16T12:29:15.830Z,99794.38
2018-12-16T12:31:44.146Z,99787.36
2018-12-16T12:34:12.629Z,99792.04
2018-12-16T12:36:40.955Z,99774.05
2018-12-16T12:39:09.335Z,99772.64
2018-12-16T12:41:37.735Z,99783.42
2018-12-16T12:44:06.180Z,99764.97
2018-12-16T12:46:34.500Z,99773.20
2018-12-16T12:49:02.884Z,99772.21
2018-12-16T12:51:31.229Z,99759.18
2018-12-16T12:53:59.562Z,99754.35
2018-12-16T12:56:27.986Z,99747.13
2018-12-16T12:58:56.455Z,99754.67
2018-12-16T13:01:24.978Z,99754.75
2018-12-16T13:03:53.326Z,99769.73
2018-12-16T13:06:21.735Z,99776.41
2018-12-16T13:08:50.097Z,99768.15
2018-12-16T13:11:18.448Z,99770.39
2018-12-16T13:13:46.784Z,99761.66
2018-12-16T13:16:15.180Z,99759.05
2018-12-16T13:18:43.530Z,99772.57
2018-12-16T13:21:11.903Z,99770.22
2018-12-16T13:23:40.260Z,99771.74
2018-12-16T13:26:08.667Z,99780.16
2018-12-16T13:28:37.047Z,99766.63
2018-12-16T13:31:05.408Z,99768.23
2018-12-16T13:33:33.757Z,99760.89
2018-12-16T13:36:02.181Z,99761.25
2018-12-16T13:38:30.680Z,99761.73
2018-12-16T13:40:59.007Z,99769.42
2018-12-16T13:43:27.425Z,99762.69
2018-12-16T13:45:55.914Z,99766.84
2018-12-16T13:48:24.251Z,99781.20
2018-12-16T13:50:52.579Z,99769.61
2018-12-16T13:53:20.915Z,99776.98
2018-12-16T13:55:49.598Z,99785.15
2018-12-16T13:58:17.945Z,99782.13
2018-12-16T14:00:46.367Z,99776.86
2018-12-16T14:03:14.688Z,99775.46
2018-12-16T14:05:46.659Z,99776.06
2018-12-16T14:08:13.476Z,99772.95
2018-12-16T14:10:42.432Z,99776.02
2018-12-16T14:13:10.799Z,99765.34
2018-12-16T14:15:39.145Z,99758.77
2018-12-16T14:18:07.506Z,99769.20
2018-12-16T14:20:35.868Z,99792.27
2018-12-16T14:23:05.564Z,99782.38
2018-12-16T14:25:33.915Z,99772.18
2018-12-16T14:28:02.370Z,99764.80
2018-12-16T14:30:30.741Z,99761.15
2018-12-16T14:32:59.080Z,99764.17
2018-12-16T14:35:27.632Z,99769.35
2018-12-16T14:37:56.851Z,99760.44
2018-12-16T14:40:25.163Z,99768.75
2018-12-16T14:42:53.503Z,99778.75
2018-12-16T14:45:21.870Z,99769.89
2018-12-16T14:47:50.215Z,99768.98
2018-12-16T14:50:18.553Z,99764.84
2018-12-16T14:52:46.891Z,99760.81
2018-12-16T14:55:15.408Z,99767.98
2018-12-16T14:57:43.799Z,99754.00
2018-12-16T15:00:12.291Z,99757.75
2018-12-16T15:02:40.634Z,99753.80
2018-12-16T15:05:08.991Z,99759.38
2018-12-16T15:07:37.342Z,99752.30
2018-12-16T15:10:07.156Z,99739.95
2018-12-16T15:12:35.612Z,99740.23
2018-12-16T15:15:04.423Z,99752.06
2018-12-16T15:17:32.807Z,99745.09
2018-12-16T15:20:01.345Z,99756.00
2018-12-16T15:22:29.853Z,99771.06
2018-12-16T15:24:58.224Z,99769.66
2018-12-16T15:27:26.604Z,99765.20
2018-12-16T15:29:54.981Z,99763.27
2018-12-16T15:32:23.398Z,99760.72
2018-12-16T15:34:51.942Z,99764.49
2018-12-16T15:37:20.314Z,99754.29
2018-12-16T15:39:48.671Z,99754.38
2018-12-16T15:42:17.079Z,99749.03
2018-12-16T15:44:45.688Z,99751.52
2018-12-16T15:47:14.041Z,99753.58
2018-12-16T15:49:42.383Z,99761.34
2018-12-16T15:52:10.710Z,99755.38
2018-12-16T15:54:39.098Z,99753.74
2018-12-16T15:57:07.592Z,99756.38
2018-12-16T15:59:35.899Z,99762.34
2018-12-16T16:02:04.359Z,99768.48
2018-12-16T16:04:32.713Z,99762.63
2018-12-16T16:07:01.094Z,99767.01
2018-12-16T16:09:29.469Z,99764.77
2018-12-16T16:11:57.919Z,99765.98
2018-12-16T16:14:26.399Z,99771.75
2018-12-16T16:16:54.820Z,99769.12
2018-12-16T16:19:23.189Z,99782.78
2018-12-16T16:21:51.837Z,99780.75
2018-12-16T16:24:25.450Z,99776.81
2018-12-16T16:26:53.881Z,99782.67
2018-12-16T16:29:23.007Z,99782.84
2018-12-16T16:31:51.359Z,99782.03
2018-12-16T16:34:19.715Z,99783.12
2018-12-16T16:36:48.054Z,99777.27
2018-12-16T16:39:16.475Z,99780.41
2018-12-16T16:41:44.859Z,99788.21
2018-12-16T16:44:14.419Z,99790.04
2018-12-16T16:46:42.843Z,99785.58
2018-12-16T16:49:11.423Z,99780.04
2018-12-16T16:51:39.766Z,99789.70
2018-12-16T16:54:08.188Z,99787.89
2018-12-16T16:56:36.612Z,99800.93
2018-12-16T16:59:04.955Z,99804.70
2018-12-16T17:01:33.725Z,99798.56
2018-12-16T17:04:02.168Z,99809.48
2018-12-16T17:06:31.040Z,99799.96
2018-12-16T17:08:59.531Z,99809.36
2018-12-16T17:11:28.289Z,99809.16
2018-12-16T17:13:58.532Z,99807.13
2018-12-16T17:16:27.027Z,99817.25
2018-12-16T17:19:00.576Z,99818.97
2018-12-16T17:21:29.454Z,99821.42
2018-12-16T17:23:57.842Z,99828.63
2018-12-16T17:26:29.999Z,99844.58
2018-12-16T17:28:56.651Z,99838.54
2018-12-16T17:31:25.034Z,99836.28
2018-12-16T17:33:53.460Z,99838.91
2018-12-16T17:36:21.823Z,99837.60
2018-12-16T17:38:50.194Z,99841.34
2018-12-16T17:41:18.650Z,99839.52
2018-12-16T17:43:47.081Z,99842.97
2018-12-16T17:46:15.545Z,99836.48
2018-12-16T17:48:43.984Z,99834.31
2018-12-16T17:51:12.382Z,99835.98
2018-12-16T17:53:40.768Z,99831.92
2018-12-16T17:56:09.467Z,99838.98
2018-12-16T17:58:38.040Z,99843.61
2018-12-16T18:01:06.773Z,99847.16
2018-12-16T18:03:35.232Z,99851.27
2018-12-16T18:06:04.505Z,99855.30
2018-12-16T18:08:32.931Z,99849.53
2018-12-16T18:11:01.371Z,99841.84
2018-12-16T18:13:29.715Z,99848.13
2018-12-16T18:15:58.115Z,99844.98
2018-12-16T18:18:26.475Z,99845.33
2018-12-16T18:20:54.822Z,99850.67
2018-12-16T18:23:29.473Z,99874.69
2018-12-16T18:25:53.888Z,99868.83
2018-12-16T18:28:22.281Z,99866.44
2018-12-16T18:30:50.698Z,99867.99
2018-12-16T18:33:19.129Z,99896.41
2018-12-16T18:35:47.468Z,99873.17
2018-12-16T18:38:15.848Z,99877.63
2018-12-16T18:40:44.192Z,99884.31
2018-12-16T18:43:12.849Z,99869.68
2018-12-16T18:45:41.229Z,99873.53
2018-12-16T18:48:09.584Z,99890.33
2018-12-16T18:50:37.999Z,99894.78
2018-12-16T18:53:06.335Z,99900.52
2018-12-16T18:55:34.668Z,99888.50
2018-12-16T18:58:03.044Z,99875.08
2018-12-16T19:00:31.419Z,99878.41
2018-12-16T19:02:59.799Z,99880.63
2018-12-16T19:05:28.268Z,99876.30
2018-12-16T19:07:56.649Z,99875.88
2018-12-16T19:10:25.011Z,99890.75
2018-12-16T19:12:53.357Z,99888.02
2018-12-16T19:15:21.957Z,99888.02
2018-12-16T19:17:50.677Z,99883.77
2018-12-16T19:20:19.039Z,99878.83
2018-12-16T19:22:47.367Z,99875.08
2018-12-16T19:25:16.019Z,99868.80
2018-12-16T19:27:44.355Z,99875.78
2018-12-16T19:30:12.787Z,99873.77
2018-12-16T19:32:43.031Z,99862.05
2018-12-16T19:35:11.390Z,99866.36
2018-12-16T19:37:39.749Z,99858.61
2018-12-16T19:40:08.112Z,99859.92
2018-12-16T19:42:36.523Z,99860.41
2018-12-16T19:45:06.127Z,99862.75
2018-12-16T19:47:34.518Z,99864.25
2018-12-16T19:50:02.927Z,99865.97
2018-12-16T19:52:31.681Z,99874.75
2018-12-16T19:55:15.050Z,99875.65
2018-12-16T19:57:50.308Z,99872.50
2018-12-16T20:00:18.895Z,99878.59
2018-12-16T20:02:47.231Z,99871.19
2018-12-16T20:05:23.714Z,99877.66
2018-12-16T20:07:52.171Z,99869.77
2018-12-16T20:10:20.532Z,99875.34
2018-12-16T20:12:49.019Z,99872.09
2018-12-16T20:15:17.372Z,99871.69
2018-12-16T20:17:45.884Z,99872.48
2018-12-16T20:20:14.223Z,99878.67
2018-12-16T20:22:42.648Z,99882.61
2018-12-16T20:25:11.177Z,99883.28
2018-12-16T20:27:39.521Z,99884.40
2018-12-16T20:30:08.006Z,99884.90
2018-12-16T20:32:36.370Z,99882.88
2018-12-16T20:35:05.320Z,99885.28
2018-12-16T20:37:34.212Z,99879.92
2018-12-16T20:40:02.607Z,99886.30
2018-12-16T20:42:31.122Z,99889.64
2018-12-16T20:44:59.497Z,99886.59
2018-12-16T20:47:28.450Z,99890.34
2018-12-16T20:49:56.981Z,99888.41
2018-12-16T20:52:25.369Z,99892.86
2018-12-16T20:54:53.936Z,99895.27
2018-12-16T20:57:22.277Z,99893.23
2018-12-16T20:59:50.843Z,99898.30
2018-12-16T21:02:20.525Z,99896.66
2018-12-16T21:04:48.881Z,99895.43
2018-12-16T21:07:17.284Z,99900.08
2018-12-16T21:09:45.675Z,99893.83
2018-12-16T21:12:19.702Z,99893.11
2018-12-16T21:14:53.639Z,99884.89
2018-12-16T21:17:27.682Z,99890.95
2018-12-16T21:19:56.316Z,99884.28
2018-12-16T21:22:24.640Z,99890.47
2018-12-16T21:24:53.005Z,99889.34
2018-12-16T21:27:25.974Z,99894.20
2018-12-16T21:29:51.778Z,99897.34
2018-12-16T21:32:20.128Z,99897.23
2018-12-16T21:34:48.507Z,99900.47
2018-12-16T21:37:16.887Z,99898.73
2018-12-16T21:39:45.265Z,99900.33
2018-12-16T21:42:13.599Z,99894.50
2018-12-16T21:44:41.943Z,99895.59
2018-12-16T21:47:10.300Z,99901.25
2018-12-16T21:49:38.619Z,99902.85
2018-12-16T21:52:06.967Z,99914.41
2018-12-16T21:54:35.357Z,99907.91
2018-12-16T21:57:03.713Z,99904.55
2018-12-16T21:59:32.266Z,99908.98
2018-12-16T22:02:00.675Z,99910.01
2018-12-16T22:04:29.030Z,99909.30
2018-12-16T22:06:57.371Z,99907.18
2018-12-16T22:09:25.760Z,99901.48
2018-12-16T22:11:54.202Z,99906.66
2018-12-16T22:14:22.544Z,99901.41
2018-12-16T22:16:50.963Z,99908.67
2018-12-16T22:19:19.407Z,99913.61
2018-12-16T22:21:47.776Z,99920.80
2018-12-16T22:24:16.115Z,99919.91
2018-12-16T22:26:44.498Z,99916.95
2018-12-16T22:29:12.872Z,99917.16
2018-12-16T22:31:41.218Z,99920.08
2018-12-16T22:34:09.583Z,99922.00
2018-12-16T22:36:38.708Z,99921.20
2018-12-16T22:39:07.795Z,99914.28
2018-12-16T22:41:36.252Z,99915.16
2018-12-16T22:44:04.719Z,99917.08
2018-12-16T22:46:33.574Z,99910.22
2018-12-16T22:49:01.904Z,99915.77
2018-12-16T22:51:30.317Z,99913.73
2018-12-16T22:53:58.660Z,99914.33
2018-12-16T22:56:27.080Z,99915.36
2018-12-16T22:58:55.426Z,99911.42
2018-12-16T23:01:23.842Z,99911.91
2018-12-16T23:03:52.220Z,99904.09
2018-12-16T23:06:20.660Z,99911.70
2018-12-16T23:08:48.978Z,99907.03
2018-12-16T23:11:17.376Z,99909.55
2018-12-16T23:13:45.721Z,99916.70
2018-12-16T23:16:14.117Z,99911.59
2018-12-16T23:18:42.666Z,99911.59
2018-12-16T23:21:11.282Z,99906.92
2018-12-16T23:23:39.753Z,99902.14
2018-12-16T23:26:08.215Z,99897.20
2018-12-16T23:28:36.747Z,99895.96
2018-12-16T23:31:05.090Z,99895.24
2018-12-16T23:33:33.441Z,99886.34
2018-12-16T23:36:01.864Z,99891.93
2018-12-16T23:38:30.352Z,99896.96
2018-12-16T23:40:58.696Z,99906.05
2018-12-16T23:43:27.106Z,99908.48
2018-12-16T23:45:55.531Z,99897.61
2018-12-16T23:48:23.863Z,99912.25
2018-12-16T23:50:52.210Z,99916.44
2018-12-16T23:53:20.541Z,99915.32
2018-12-16T23:55:48.882Z,99916.95
2018-12-16T23:58:17.297Z,99923.62
